createdAt,value
2022-08-21T00:02:27.258Z,20.62
2022-08-21T00:04:57.839Z,20.59
2022-08-21T00:07:27.660Z,20.58
2022-08-21T00:09:56.889Z,20.57
2022-08-21T00:12:26.885Z,20.54
2022-08-21T00:14:57.053Z,20.57
2022-08-21T00:17:26.520Z,20.54
2022-08-21T00:19:54.984Z,20.55
2022-08-21T00:22:23.448Z,20.57
2022-08-21T00:24:51.938Z,20.58
2022-08-21T00:27:20.552Z,20.58
2022-08-21T00:29:50.423Z,20.60
2022-08-21T00:32:23.320Z,20.76
2022-08-21T00:34:52.157Z,20.65
2022-08-21T00:37:21.146Z,20.62
2022-08-21T00:39:49.908Z,20.54
2022-08-21T00:42:20.960Z,20.50
2022-08-21T00:44:52.603Z,20.50
2022-08-21T00:47:21.945Z,20.41
2022-08-21T00:49:50.509Z,20.38
2022-08-21T00:52:24.805Z,20.26
2022-08-21T00:54:54.722Z,20.19
2022-08-21T00:57:33.611Z,20.24
2022-08-21T01:00:11.631Z,20.24
2022-08-21T01:02:40.477Z,20.22
2022-08-21T01:05:11.827Z,20.17
2022-08-21T01:07:40.867Z,20.18
2022-08-21T01:10:13.373Z,20.14
2022-08-21T01:12:53.692Z,20.18
2022-08-21T01:15:25.943Z,20.16
2022-08-21T01:17:55.591Z,20.15
2022-08-21T01:20:32.343Z,20.14
2022-08-21T01:23:04.287Z,20.09
2022-08-21T01:25:33.414Z,20.08
2022-08-21T01:28:16.070Z,20.12
2022-08-21T01:30:45.919Z,20.06
2022-08-21T01:33:14.613Z,20.06
2022-08-21T01:35:43.053Z,19.98
2022-08-21T01:38:13.183Z,19.99
2022-08-21T01:40:41.846Z,20.00
2022-08-21T01:43:10.320Z,19.98
2022-08-21T01:45:38.888Z,19.95
2022-08-21T01:48:07.424Z,19.94
2022-08-21T01:50:36.817Z,19.96
2022-08-21T01:53:05.849Z,19.96
2022-08-21T01:55:35.991Z,19.97
2022-08-21T01:58:04.558Z,19.89
2022-08-21T02:00:33.297Z,19.90
2022-08-21T02:03:01.776Z,19.86
2022-08-21T02:05:30.259Z,19.86
2022-08-21T02:07:59.134Z,19.81
2022-08-21T02:10:32.275Z,19.84
2022-08-21T02:13:03.047Z,19.87
2022-08-21T02:15:32.833Z,19.89
2022-08-21T02:18:04.432Z,19.88
2022-08-21T02:20:36.283Z,19.93
2022-08-21T02:23:07.145Z,19.91
2022-08-21T02:25:36.084Z,19.88
2022-08-21T02:28:10.084Z,19.86
2022-08-21T02:30:44.775Z,19.77
2022-08-21T02:33:14.253Z,19.80
2022-08-21T02:35:44.491Z,19.79
2022-08-21T02:38:17.625Z,19.74
2022-08-21T02:40:51.040Z,19.68
2022-08-21T02:43:22.905Z,19.58
2022-08-21T02:45:52.937Z,19.52
2022-08-21T02:48:24.217Z,19.51
2022-08-21T02:50:57.928Z,19.47
2022-08-21T02:53:27.372Z,19.42
2022-08-21T02:55:59.331Z,19.29
2022-08-21T02:58:36.004Z,19.31
2022-08-21T03:01:05.393Z,19.28
2022-08-21T03:03:36.169Z,19.25
2022-08-21T03:06:06.334Z,19.15
2022-08-21T03:08:36.505Z,19.05
2022-08-21T03:11:06.032Z,19.07
2022-08-21T03:13:37.466Z,18.98
2022-08-21T03:16:09.813Z,19.07
2022-08-21T03:18:39.914Z,19.05
2022-08-21T03:21:08.870Z,19.10
2022-08-21T03:23:37.491Z,19.06
2022-08-21T03:26:06.473Z,19.04
2022-08-21T03:28:37.897Z,19.05
2022-08-21T03:31:06.842Z,18.99
2022-08-21T03:33:35.337Z,18.99
2022-08-21T03:36:09.461Z,18.87
2022-08-21T03:38:39.378Z,18.82
2022-08-21T03:41:08.716Z,18.78
2022-08-21T03:43:39.503Z,18.74
2022-08-21T03:46:09.283Z,18.82
2022-08-21T03:48:39.257Z,18.75
2022-08-21T03:51:08.667Z,18.61
2022-08-21T03:53:37.382Z,18.54
2022-08-21T03:56:07.182Z,18.49
2022-08-21T03:58:36.991Z,18.44
2022-08-21T04:01:08.169Z,18.51
2022-08-21T04:03:38.254Z,18.42
2022-08-21T04:06:08.361Z,18.38
2022-08-21T04:08:37.326Z,18.28
2022-08-21T04:11:06.769Z,18.27
2022-08-21T04:13:35.179Z,18.37
2022-08-21T04:16:15.126Z,18.43
2022-08-21T04:18:44.432Z,18.42
2022-08-21T04:21:14.216Z,18.34
2022-08-21T04:23:42.714Z,18.34
2022-08-21T04:26:11.441Z,18.46
2022-08-21T04:28:39.952Z,18.54
2022-08-21T04:31:08.758Z,18.45
2022-08-21T04:33:38.546Z,18.48
2022-08-21T04:36:08.865Z,18.44
2022-08-21T04:38:37.764Z,18.39
2022-08-21T04:41:07.342Z,18.56
2022-08-21T04:43:36.102Z,18.49
2022-08-21T04:46:04.661Z,18.39
2022-08-21T04:48:33.865Z,18.53
2022-08-21T04:51:09.816Z,18.67
2022-08-21T04:53:41.818Z,18.79
2022-08-21T04:56:16.644Z,18.63
2022-08-21T04:58:45.507Z,18.49
2022-08-21T05:01:19.887Z,18.51
2022-08-21T05:03:51.794Z,18.54
2022-08-21T05:06:22.363Z,18.70
2022-08-21T05:09:01.547Z,18.74
2022-08-21T05:11:32.187Z,18.88
2022-08-21T05:14:00.771Z,19.25
2022-08-21T05:16:37.412Z,19.85
2022-08-21T05:19:06.847Z,20.12
2022-08-21T05:21:38.006Z,20.10
2022-08-21T05:24:06.651Z,20.14
2022-08-21T05:26:45.298Z,20.11
2022-08-21T05:29:16.274Z,20.17
2022-08-21T05:31:46.040Z,20.04
2022-08-21T05:34:16.187Z,19.59
2022-08-21T05:36:47.004Z,19.29
2022-08-21T05:39:15.966Z,19.02
2022-08-21T05:41:44.603Z,18.80
2022-08-21T05:44:13.097Z,18.68
2022-08-21T05:46:41.554Z,18.68
2022-08-21T05:49:10.226Z,18.58
2022-08-21T05:51:39.164Z,18.60
2022-08-21T05:54:09.037Z,18.62
2022-08-21T05:56:37.568Z,18.63
2022-08-21T05:59:08.607Z,18.65
2022-08-21T06:01:37.661Z,18.74
2022-08-21T06:04:06.730Z,18.85
2022-08-21T06:06:35.959Z,19.00
2022-08-21T06:09:05.646Z,19.00
2022-08-21T06:11:36.351Z,18.89
2022-08-21T06:14:07.303Z,18.90
2022-08-21T06:16:35.803Z,19.02
2022-08-21T06:19:04.258Z,19.14
2022-08-21T06:21:32.804Z,19.19
2022-08-21T06:24:01.257Z,19.57
2022-08-21T06:26:30.227Z,20.24
2022-08-21T06:29:00.401Z,20.79
2022-08-21T06:31:30.786Z,21.48
2022-08-21T06:33:59.540Z,22.15
2022-08-21T06:36:28.185Z,22.75
2022-08-21T06:38:57.173Z,23.26
2022-08-21T06:41:27.021Z,23.25
2022-08-21T06:43:56.765Z,23.52
2022-08-21T06:46:28.896Z,23.77
2022-08-21T06:48:58.787Z,24.31
2022-08-21T06:51:27.651Z,24.16
2022-08-21T06:53:56.721Z,24.45
2022-08-21T06:56:27.946Z,24.44
2022-08-21T06:58:56.371Z,24.35
2022-08-21T07:01:28.944Z,24.53
2022-08-21T07:03:57.423Z,24.39
2022-08-21T07:06:25.909Z,24.46
2022-08-21T07:08:54.316Z,24.81
2022-08-21T07:11:27.968Z,25.06
2022-08-21T07:13:57.510Z,25.82
2022-08-21T07:16:27.638Z,25.71
2022-08-21T07:18:56.167Z,25.65
2022-08-21T07:21:26.212Z,25.10
2022-08-21T07:23:55.198Z,25.27
2022-08-21T07:26:25.292Z,25.49
2022-08-21T07:28:53.927Z,25.62
2022-08-21T07:31:25.351Z,26.50
2022-08-21T07:33:55.815Z,27.05
2022-08-21T07:36:24.877Z,27.36
2022-08-21T07:38:53.295Z,27.53
2022-08-21T07:41:25.522Z,27.72
2022-08-21T07:43:54.426Z,28.15
2022-08-21T07:46:22.948Z,28.15
2022-08-21T07:48:51.556Z,28.17
2022-08-21T07:51:28.323Z,28.18
2022-08-21T07:53:59.753Z,28.18
2022-08-21T07:56:29.064Z,28.49
2022-08-21T07:58:58.601Z,28.59
2022-08-21T08:01:27.539Z,28.38
2022-08-21T08:03:56.057Z,28.94
2022-08-21T08:06:27.021Z,29.10
2022-08-21T08:08:55.502Z,28.73
2022-08-21T08:11:23.985Z,29.21
2022-08-21T08:13:54.605Z,29.35
2022-08-21T08:16:23.187Z,29.62
2022-08-21T08:18:52.463Z,29.62
2022-08-21T08:21:21.945Z,30.01
2022-08-21T08:23:52.032Z,29.96
2022-08-21T08:26:20.561Z,30.14
2022-08-21T08:28:49.069Z,30.81
2022-08-21T08:31:17.900Z,31.04
2022-08-21T08:33:46.356Z,30.40
2022-08-21T08:36:19.980Z,30.71
2022-08-21T08:38:49.981Z,30.75
2022-08-21T08:41:23.901Z,30.25
2022-08-21T08:44:05.001Z,29.93
2022-08-21T08:46:40.838Z,29.31
2022-08-21T08:49:22.458Z,28.52
2022-08-21T08:52:00.480Z,29.16
2022-08-21T08:54:34.959Z,29.82
2022-08-21T08:57:12.105Z,29.62
2022-08-21T08:59:45.959Z,29.16
2022-08-21T09:02:16.871Z,29.27
2022-08-21T09:04:48.541Z,29.05
2022-08-21T09:07:27.954Z,29.15
2022-08-21T09:10:14.855Z,29.98
2022-08-21T09:12:56.307Z,30.42
2022-08-21T09:15:34.351Z,30.48
2022-08-21T09:18:22.643Z,30.32
2022-08-21T09:21:05.389Z,31.10
2022-08-21T09:23:46.317Z,30.86
2022-08-21T09:26:18.549Z,30.71
2022-08-21T09:28:54.763Z,30.36
2022-08-21T09:31:30.590Z,30.27
2022-08-21T09:34:04.059Z,30.82
2022-08-21T09:36:41.614Z,30.48
2022-08-21T09:39:12.112Z,30.59
2022-08-21T09:41:41.731Z,29.30
2022-08-21T09:44:11.597Z,29.09
2022-08-21T09:46:40.076Z,29.06
2022-08-21T09:49:10.428Z,29.79
2022-08-21T09:51:54.807Z,29.89
2022-08-21T09:54:30.812Z,30.34
2022-08-21T09:57:24.839Z,30.67
2022-08-21T09:59:55.353Z,30.77
2022-08-21T10:02:30.350Z,30.71
2022-08-21T10:05:02.044Z,30.49
2022-08-21T10:07:34.573Z,31.00
2022-08-21T10:10:07.101Z,30.95
2022-08-21T10:12:47.299Z,30.77
2022-08-21T10:15:25.359Z,30.15
2022-08-21T10:18:04.126Z,30.29
2022-08-21T10:20:41.436Z,30.47
2022-08-21T10:23:28.652Z,31.01
2022-08-21T10:26:13.192Z,30.73
2022-08-21T10:28:54.031Z,29.85
2022-08-21T10:31:35.091Z,30.51
2022-08-21T10:34:22.043Z,30.50
2022-08-21T10:37:08.326Z,30.09
2022-08-21T10:39:47.656Z,30.97
2022-08-21T10:42:37.579Z,29.73
2022-08-21T10:45:28.581Z,30.01
2022-08-21T10:48:06.503Z,29.10
2022-08-21T10:50:42.966Z,28.59
2022-08-21T10:53:37.864Z,29.22
2022-08-21T10:56:18.939Z,28.72
2022-08-21T10:59:23.876Z,28.90
2022-08-21T11:01:59.651Z,28.50
2022-08-21T11:04:47.022Z,28.62
2022-08-21T11:07:24.976Z,28.93
2022-08-21T11:10:05.821Z,28.55
2022-08-21T11:12:43.512Z,27.29
2022-08-21T11:15:30.039Z,28.15
2022-08-21T11:18:06.552Z,28.65
2022-08-21T11:20:45.806Z,29.03
2022-08-21T11:23:21.376Z,29.39
2022-08-21T11:25:55.748Z,29.22
2022-08-21T11:28:29.436Z,29.08
2022-08-21T11:31:13.452Z,28.82
2022-08-21T11:34:02.711Z,29.06
2022-08-21T11:36:44.063Z,29.38
2022-08-21T11:39:28.144Z,29.31
2022-08-21T11:42:08.978Z,29.18
2022-08-21T11:44:51.600Z,29.11
2022-08-21T11:47:34.534Z,29.21
2022-08-21T11:50:34.924Z,29.35
2022-08-21T11:53:13.386Z,29.73
2022-08-21T11:55:46.730Z,29.14
2022-08-21T11:58:23.541Z,29.46
2022-08-21T12:00:58.310Z,29.69
2022-08-21T12:03:31.603Z,29.06
2022-08-21T12:06:03.249Z,29.26
2022-08-21T12:08:36.215Z,29.60
2022-08-21T12:11:09.047Z,29.73
2022-08-21T12:13:42.648Z,29.41
2022-08-21T12:16:14.971Z,29.47
2022-08-21T12:18:44.805Z,29.58
2022-08-21T12:21:26.679Z,29.46
2022-08-21T12:24:18.781Z,29.60
2022-08-21T12:26:54.595Z,29.43
2022-08-21T12:29:29.384Z,29.44
2022-08-21T12:32:03.586Z,29.11
2022-08-21T12:34:39.699Z,29.13
2022-08-21T12:37:19.295Z,28.98
2022-08-21T12:39:53.012Z,28.60
2022-08-21T12:42:25.774Z,28.74
2022-08-21T12:45:00.303Z,28.41
2022-08-21T12:47:34.406Z,27.78
2022-08-21T12:50:08.242Z,27.97
2022-08-21T12:52:42.505Z,27.32
2022-08-21T12:55:16.701Z,27.60
2022-08-21T12:57:45.166Z,27.88
2022-08-21T13:00:17.051Z,28.11
2022-08-21T13:02:50.858Z,28.18
2022-08-21T13:05:31.440Z,28.51
2022-08-21T13:08:00.247Z,28.15
2022-08-21T13:10:33.379Z,28.08
2022-08-21T13:13:12.811Z,28.12
2022-08-21T13:15:47.360Z,28.20
2022-08-21T13:18:25.842Z,27.97
2022-08-21T13:21:05.622Z,28.10
2022-08-21T13:23:34.293Z,28.06
2022-08-21T13:26:18.526Z,27.89
2022-08-21T13:28:48.588Z,27.77
2022-08-21T13:31:26.964Z,27.87
2022-08-21T13:33:57.234Z,28.08
2022-08-21T13:36:32.018Z,28.08
2022-08-21T13:39:00.598Z,27.84
2022-08-21T13:41:34.985Z,27.95
2022-08-21T13:44:06.814Z,28.12
2022-08-21T13:46:38.919Z,27.87
2022-08-21T13:49:08.826Z,27.81
2022-08-21T13:51:38.246Z,28.03
2022-08-21T13:54:23.518Z,28.26
2022-08-21T13:56:53.437Z,28.24
2022-08-21T13:59:32.419Z,28.11
2022-08-21T14:02:05.313Z,28.25
2022-08-21T14:04:38.555Z,28.09
2022-08-21T14:07:21.284Z,27.91
2022-08-21T14:09:50.354Z,28.07
2022-08-21T14:12:28.494Z,28.15
2022-08-21T14:14:59.469Z,28.11
2022-08-21T14:17:36.296Z,28.19
2022-08-21T14:20:10.133Z,28.25
2022-08-21T14:22:42.166Z,28.35
2022-08-21T14:25:17.162Z,28.20
2022-08-21T14:27:54.940Z,28.02
2022-08-21T14:30:30.543Z,28.28
2022-08-21T14:32:59.397Z,28.24
2022-08-21T14:35:28.563Z,28.41
2022-08-21T14:37:58.729Z,28.38
2022-08-21T14:40:28.027Z,28.41
2022-08-21T14:42:59.117Z,28.19
2022-08-21T14:45:31.206Z,28.26
2022-08-21T14:48:00.919Z,28.21
2022-08-21T14:50:29.495Z,28.38
2022-08-21T14:52:57.953Z,28.20
2022-08-21T14:55:26.543Z,28.35
2022-08-21T14:57:57.680Z,28.43
2022-08-21T15:00:35.922Z,28.32
2022-08-21T15:03:05.211Z,28.46
2022-08-21T15:05:34.330Z,28.20
2022-08-21T15:08:03.320Z,28.38
2022-08-21T15:10:32.906Z,28.28
2022-08-21T15:13:03.829Z,28.46
2022-08-21T15:15:36.770Z,28.41
2022-08-21T15:18:05.366Z,28.52
2022-08-21T15:20:33.874Z,28.51
2022-08-21T15:23:02.394Z,28.49
2022-08-21T15:25:31.162Z,28.58
2022-08-21T15:28:00.525Z,28.24
2022-08-21T15:30:32.427Z,28.51
2022-08-21T15:33:00.894Z,28.33
2022-08-21T15:35:29.625Z,28.36
2022-08-21T15:37:58.584Z,28.26
2022-08-21T15:40:27.840Z,28.13
2022-08-21T15:43:02.964Z,28.07
2022-08-21T15:45:34.209Z,27.99
2022-08-21T15:48:03.011Z,27.99
2022-08-21T15:50:33.008Z,28.10
2022-08-21T15:53:01.541Z,27.93
2022-08-21T15:55:30.029Z,28.21
2022-08-21T15:58:00.057Z,28.32
2022-08-21T16:00:36.423Z,28.17
2022-08-21T16:03:08.455Z,28.22
2022-08-21T16:05:36.904Z,28.08
2022-08-21T16:08:05.935Z,28.08
2022-08-21T16:10:34.504Z,27.97
2022-08-21T16:13:06.882Z,28.07
2022-08-21T16:15:36.880Z,27.96
2022-08-21T16:18:06.583Z,27.82
2022-08-21T16:20:35.177Z,27.85
2022-08-21T16:23:03.783Z,27.73
2022-08-21T16:25:35.100Z,27.71
2022-08-21T16:28:04.791Z,27.79
2022-08-21T16:30:34.475Z,27.81
2022-08-21T16:33:06.969Z,27.64
2022-08-21T16:35:35.553Z,27.64
2022-08-21T16:38:04.264Z,27.52
2022-08-21T16:40:32.777Z,27.54
2022-08-21T16:43:01.378Z,27.43
2022-08-21T16:45:33.163Z,27.46
2022-08-21T16:48:06.547Z,27.46
2022-08-21T16:50:35.135Z,27.44
2022-08-21T16:53:03.663Z,27.32
2022-08-21T16:55:33.244Z,27.30
2022-08-21T16:58:02.985Z,27.23
2022-08-21T17:00:32.334Z,27.16
2022-08-21T17:03:01.094Z,27.12
2022-08-21T17:05:31.139Z,27.10
2022-08-21T17:07:59.630Z,27.04
2022-08-21T17:10:28.130Z,27.02
2022-08-21T17:12:59.296Z,26.97
2022-08-21T17:15:33.918Z,26.90
2022-08-21T17:18:03.118Z,26.90
2022-08-21T17:20:33.423Z,26.83
2022-08-21T17:23:02.251Z,26.83
2022-08-21T17:25:31.011Z,26.79
2022-08-21T17:27:59.949Z,26.78
2022-08-21T17:30:28.610Z,26.73
2022-08-21T17:32:59.790Z,26.72
2022-08-21T17:35:28.389Z,26.63
2022-08-21T17:37:58.310Z,26.59
2022-08-21T17:40:26.887Z,26.55
2022-08-21T17:42:55.534Z,26.54
2022-08-21T17:45:24.332Z,26.49
2022-08-21T17:47:52.916Z,26.44
2022-08-21T17:50:22.563Z,26.42
2022-08-21T17:52:51.507Z,26.35
2022-08-21T17:55:22.041Z,26.34
2022-08-21T17:57:53.228Z,26.30
2022-08-21T18:00:23.052Z,26.25
2022-08-21T18:03:01.778Z,26.22
2022-08-21T18:05:31.181Z,26.17
2022-08-21T18:08:00.265Z,26.13
2022-08-21T18:10:30.794Z,26.07
2022-08-21T18:13:00.442Z,26.03
2022-08-21T18:15:30.104Z,25.94
2022-08-21T18:17:58.933Z,25.90
2022-08-21T18:20:28.073Z,25.87
2022-08-21T18:22:56.735Z,25.77
2022-08-21T18:25:25.476Z,25.72
2022-08-21T18:27:55.950Z,25.68
2022-08-21T18:30:25.955Z,25.62
2022-08-21T18:32:56.661Z,25.57
2022-08-21T18:35:26.119Z,25.53
2022-08-21T18:37:54.548Z,25.49
2022-08-21T18:40:23.395Z,25.44
2022-08-21T18:42:55.806Z,25.39
2022-08-21T18:45:26.521Z,25.35
2022-08-21T18:47:58.505Z,25.29
2022-08-21T18:50:29.860Z,25.24
2022-08-21T18:52:58.481Z,25.20
2022-08-21T18:55:28.018Z,25.15
2022-08-21T18:57:58.173Z,25.15
2022-08-21T19:00:33.225Z,25.06
2022-08-21T19:03:05.949Z,24.99
2022-08-21T19:05:51.625Z,24.98
2022-08-21T19:08:23.515Z,24.93
2022-08-21T19:10:57.047Z,24.92
2022-08-21T19:13:28.414Z,24.88
2022-08-21T19:16:00.131Z,24.83
2022-08-21T19:18:29.549Z,24.81
2022-08-21T19:20:58.415Z,24.81
2022-08-21T19:23:29.540Z,24.79
2022-08-21T19:26:02.756Z,24.71
2022-08-21T19:28:36.313Z,24.67
2022-08-21T19:31:12.485Z,24.67
2022-08-21T19:33:57.691Z,24.63
2022-08-21T19:36:30.060Z,24.59
2022-08-21T19:38:58.924Z,24.49
2022-08-21T19:41:31.872Z,24.46
2022-08-21T19:44:05.799Z,24.41
2022-08-21T19:46:38.887Z,24.38
2022-08-21T19:49:15.993Z,24.31
2022-08-21T19:51:44.874Z,24.32
2022-08-21T19:54:17.897Z,24.33
2022-08-21T19:56:47.139Z,24.26
2022-08-21T19:59:18.960Z,24.20
2022-08-21T20:01:55.514Z,24.15
2022-08-21T20:04:25.045Z,24.09
2022-08-21T20:06:56.545Z,24.00
2022-08-21T20:09:25.371Z,23.90
2022-08-21T20:11:58.546Z,23.83
2022-08-21T20:14:31.220Z,23.75
2022-08-21T20:17:12.476Z,23.73
2022-08-21T20:19:45.742Z,23.71
2022-08-21T20:22:15.096Z,23.63
2022-08-21T20:24:43.959Z,23.66
2022-08-21T20:27:21.022Z,23.64
2022-08-21T20:29:50.297Z,23.63
2022-08-21T20:32:22.233Z,23.60
2022-08-21T20:34:51.781Z,23.60
2022-08-21T20:40:13.384Z,23.56
2022-08-21T20:42:47.278Z,23.53
2022-08-21T20:45:22.292Z,23.49
2022-08-21T20:47:55.434Z,23.49
2022-08-21T20:50:29.158Z,23.50
2022-08-21T20:53:07.796Z,23.37
2022-08-21T20:55:43.365Z,23.38
2022-08-21T20:58:22.032Z,23.31
2022-08-21T21:01:01.657Z,23.28
2022-08-21T21:03:37.618Z,23.30
2022-08-21T21:06:15.742Z,23.21
2022-08-21T21:08:53.178Z,23.13
2022-08-21T21:11:26.398Z,23.06
2022-08-21T21:13:58.662Z,23.13
2022-08-21T21:16:33.417Z,23.01
2022-08-21T21:19:06.785Z,23.00
2022-08-21T21:21:51.455Z,22.86
2022-08-21T21:27:22.229Z,22.87
2022-08-21T21:29:58.098Z,22.95
2022-08-21T21:32:29.731Z,22.72
2022-08-21T21:34:59.758Z,22.62
2022-08-21T21:37:38.593Z,22.56
2022-08-21T21:40:27.381Z,22.61
2022-08-21T21:43:09.425Z,22.50
2022-08-21T21:45:57.921Z,22.41
2022-08-21T21:49:00.027Z,22.35
2022-08-21T21:51:51.658Z,22.21
2022-08-21T21:54:51.842Z,22.14
2022-08-21T21:57:37.795Z,22.24
2022-08-21T22:00:13.975Z,22.11
2022-08-21T22:02:54.923Z,22.14
2022-08-21T22:05:43.079Z,22.18
2022-08-21T22:08:22.969Z,22.31
2022-08-21T22:11:09.028Z,22.07
2022-08-21T22:14:01.112Z,21.89
2022-08-21T22:16:29.783Z,21.91
2022-08-21T22:19:03.463Z,21.94
2022-08-21T22:21:38.617Z,21.93
2022-08-21T22:24:16.003Z,21.92
2022-08-21T22:26:50.406Z,21.71
2022-08-21T22:29:24.627Z,21.66
2022-08-21T22:32:07.867Z,21.66
2022-08-21T22:34:36.260Z,21.66
2022-08-21T22:37:09.996Z,21.59
2022-08-21T22:39:47.002Z,21.63
2022-08-21T22:42:24.904Z,21.69
2022-08-21T22:44:57.123Z,21.53
2022-08-21T22:47:33.555Z,21.49
2022-08-21T22:50:05.614Z,21.45
2022-08-21T22:52:36.983Z,21.45
2022-08-21T22:55:26.025Z,21.42
2022-08-21T22:58:11.516Z,21.39
2022-08-21T23:00:51.334Z,21.37
2022-08-21T23:03:31.629Z,21.23
2022-08-21T23:06:12.745Z,21.34
2022-08-21T23:08:44.159Z,21.19
2022-08-21T23:11:20.862Z,21.19
2022-08-21T23:13:54.460Z,21.21
2022-08-21T23:16:47.265Z,21.15
2022-08-21T23:19:38.063Z,21.17
2022-08-21T23:22:37.557Z,21.12
2022-08-21T23:25:33.210Z,21.07
2022-08-21T23:28:13.883Z,21.08
2022-08-21T23:30:53.423Z,21.11
2022-08-21T23:33:40.649Z,21.09
2022-08-21T23:36:40.776Z,21.08
2022-08-21T23:39:27.818Z,20.85
2022-08-21T23:42:20.605Z,20.85
2022-08-21T23:45:04.686Z,20.81
2022-08-21T23:47:51.299Z,20.77
2022-08-21T23:50:28.130Z,20.74
2022-08-21T23:53:14.350Z,20.71
2022-08-21T23:56:01.403Z,20.68
2022-08-21T23:58:42.990Z,20.62
